createdAt,value
2019-04-14T00:02:36.223Z,101602.81
2019-04-14T00:05:06.418Z,101606.17
2019-04-14T00:07:32.571Z,101602.41
2019-04-14T00:09:58.755Z,101604.88
2019-04-14T00:12:25.175Z,101609.98
2019-04-14T00:14:53.416Z,101608.34
2019-04-14T00:17:19.773Z,101604.49
2019-04-14T00:19:45.992Z,101608.61
2019-04-14T00:22:12.402Z,101603.80
2019-04-14T00:24:40.256Z,101606.94
2019-04-14T00:27:06.934Z,101602.24
2019-04-14T00:29:33.238Z,101608.05
2019-04-14T00:32:00.637Z,101608.49
2019-04-14T00:34:36.146Z,101609.78
2019-04-14T00:37:21.064Z,101615.41
2019-04-14T00:39:53.230Z,101612.84
2019-04-14T00:42:39.379Z,101616.95
2019-04-14T00:45:09.267Z,101609.78
2019-04-14T00:47:49.750Z,101605.88
2019-04-14T00:50:05.885Z,101604.86
2019-04-14T00:52:32.162Z,101605.39
2019-04-14T00:54:58.679Z,101605.66
2019-04-14T00:57:26.849Z,101611.78
2019-04-14T00:59:53.156Z,101607.97
2019-04-14T01:02:19.234Z,101601.45
2019-04-14T01:04:45.431Z,101605.66
2019-04-14T01:07:12.962Z,101598.17
2019-04-14T01:09:39.171Z,101600.97
2019-04-14T01:12:06.059Z,101597.61
2019-04-14T01:14:32.299Z,101587.59
2019-04-14T01:16:58.497Z,101592.77
2019-04-14T01:19:24.627Z,101593.80
2019-04-14T01:21:52.508Z,101593.30
2019-04-14T01:24:18.881Z,101596.70
2019-04-14T01:26:46.287Z,101597.23
2019-04-14T01:29:12.556Z,101594.22
2019-04-14T01:31:38.669Z,101607.59
2019-04-14T01:34:04.858Z,101597.32
2019-04-14T01:36:32.031Z,101597.77
2019-04-14T01:38:58.220Z,101597.55
2019-04-14T01:41:24.506Z,101603.12
2019-04-14T01:43:51.644Z,101594.12
2019-04-14T01:46:23.289Z,101603.12
2019-04-14T01:48:45.920Z,101603.47
2019-04-14T01:51:30.953Z,101602.98
2019-04-14T01:53:59.607Z,101599.92
2019-04-14T01:56:34.127Z,101602.00
2019-04-14T01:59:02.252Z,101605.89
2019-04-14T02:01:36.746Z,101611.25
2019-04-14T02:04:03.214Z,101613.55
2019-04-14T02:06:29.309Z,101612.80
2019-04-14T02:08:56.737Z,101612.34
2019-04-14T02:11:23.083Z,101612.87
2019-04-14T02:13:49.172Z,101614.91
2019-04-14T02:16:25.994Z,101612.57
2019-04-14T02:18:44.794Z,101619.02
2019-04-14T02:21:12.729Z,101614.08
2019-04-14T02:23:39.114Z,101611.55
2019-04-14T02:26:05.305Z,101610.80
2019-04-14T02:28:31.534Z,101609.02
2019-04-14T02:31:10.237Z,101605.72
2019-04-14T02:33:50.349Z,101607.20
2019-04-14T02:38:57.337Z,101604.83
2019-04-14T02:41:30.052Z,101611.55
2019-04-14T02:43:48.218Z,101617.70
2019-04-14T02:46:13.881Z,101615.93
2019-04-14T02:48:53.333Z,101613.09
2019-04-14T02:51:15.930Z,101616.22
2019-04-14T02:56:16.555Z,101612.20
2019-04-14T03:01:07.575Z,101625.27
2019-04-14T03:03:33.989Z,101625.30
2019-04-14T03:06:01.545Z,101630.43
2019-04-14T03:08:36.365Z,101632.20
2019-04-14T03:10:53.699Z,101623.39
2019-04-14T03:15:58.735Z,101633.03
2019-04-14T03:26:15.610Z,101631.84
2019-04-14T03:28:46.330Z,101633.48
2019-04-14T03:31:38.960Z,101630.69
2019-04-14T03:38:40.285Z,101634.38
2019-04-14T03:43:36.775Z,101630.53
2019-04-14T03:46:12.122Z,101632.57
2019-04-14T03:51:06.772Z,101628.72
2019-04-14T03:53:30.507Z,101629.28
2019-04-14T03:55:56.646Z,101629.32
2019-04-14T03:58:18.890Z,101631.33
2019-04-14T04:00:46.563Z,101632.93
2019-04-14T04:03:12.881Z,101630.99
2019-04-14T04:05:39.190Z,101637.27
2019-04-14T04:08:05.376Z,101641.61
2019-04-14T04:10:33.579Z,101644.08
2019-04-14T04:12:59.770Z,101646.48
2019-04-14T04:15:25.907Z,101650.59
2019-04-14T04:17:53.943Z,101652.03
2019-04-14T04:20:39.123Z,101660.63
2019-04-14T04:23:07.503Z,101661.26
2019-04-14T04:25:35.477Z,101665.48
2019-04-14T04:28:03.781Z,101665.48
2019-04-14T04:30:31.888Z,101663.05
2019-04-14T04:33:09.384Z,101657.55
2019-04-14T04:35:39.317Z,101656.92
2019-04-14T04:38:10.167Z,101662.47
2019-04-14T04:40:37.494Z,101663.99
2019-04-14T04:43:04.108Z,101658.32
2019-04-14T04:45:30.470Z,101657.34
2019-04-14T04:47:57.709Z,101669.63
2019-04-14T04:50:23.990Z,101665.05
2019-04-14T04:52:50.277Z,101664.50
2019-04-14T04:55:17.638Z,101656.78
2019-04-14T04:57:44.001Z,101656.05
2019-04-14T05:00:11.394Z,101655.80
2019-04-14T05:02:37.893Z,101661.85
2019-04-14T05:05:41.417Z,101663.23
2019-04-14T05:08:08.662Z,101661.19
2019-04-14T05:10:37.156Z,101661.94
2019-04-14T05:13:05.335Z,101663.22
2019-04-14T05:15:36.169Z,101667.72
2019-04-14T05:18:02.798Z,101670.28
2019-04-14T05:20:29.247Z,101674.48
2019-04-14T05:22:55.342Z,101687.58
2019-04-14T05:25:21.684Z,101692.33
2019-04-14T05:27:47.851Z,101689.66
2019-04-14T05:30:15.335Z,101692.97
2019-04-14T05:32:41.563Z,101693.09
2019-04-14T05:35:07.767Z,101692.73
2019-04-14T05:37:33.890Z,101695.92
2019-04-14T05:40:00.004Z,101702.97
2019-04-14T05:42:27.477Z,101710.64
2019-04-14T05:44:54.340Z,101707.34
2019-04-14T05:47:20.450Z,101713.20
2019-04-14T05:49:50.076Z,101712.17
2019-04-14T05:52:14.926Z,101718.72
2019-04-14T05:54:42.547Z,101712.42
2019-04-14T05:57:08.856Z,101710.34
2019-04-14T05:59:35.333Z,101713.89
2019-04-14T06:02:02.600Z,101711.56
2019-04-14T06:04:28.868Z,101711.56
2019-04-14T06:06:54.979Z,101712.83
2019-04-14T06:09:21.072Z,101715.12
2019-04-14T06:11:47.304Z,101718.22
2019-04-14T06:14:13.508Z,101716.19
2019-04-14T06:16:39.761Z,101713.30
2019-04-14T06:19:07.082Z,101718.16
2019-04-14T06:21:33.473Z,101715.03
2019-04-14T06:23:59.599Z,101712.11
2019-04-14T06:26:25.896Z,101716.41
2019-04-14T06:28:52.116Z,101722.23
2019-04-14T06:31:37.019Z,101712.38
2019-04-14T06:34:08.018Z,101712.11
2019-04-14T06:36:42.028Z,101711.43
2019-04-14T06:39:12.752Z,101709.56
2019-04-14T06:41:39.045Z,101714.05
2019-04-14T06:44:05.139Z,101721.31
2019-04-14T06:46:31.266Z,101714.00
2019-04-14T06:48:57.384Z,101722.64
2019-04-14T06:51:23.513Z,101722.14
2019-04-14T06:53:49.621Z,101719.97
2019-04-14T06:56:15.821Z,101719.85
2019-04-14T06:58:41.999Z,101717.19
2019-04-14T07:01:09.181Z,101723.13
2019-04-14T07:03:35.285Z,101712.56
2019-04-14T07:06:01.522Z,101720.88
2019-04-14T07:08:29.846Z,101713.83
2019-04-14T07:10:55.732Z,101721.56
2019-04-14T07:13:22.026Z,101715.64
2019-04-14T07:15:48.452Z,101717.63
2019-04-14T07:18:14.558Z,101732.59
2019-04-14T07:20:40.679Z,101729.77
2019-04-14T07:23:06.983Z,101727.02
2019-04-14T07:25:33.514Z,101735.94
2019-04-14T07:27:59.843Z,101742.95
2019-04-14T07:30:42.899Z,101739.30
2019-04-14T07:33:16.688Z,101751.19
2019-04-14T07:35:45.942Z,101746.25
2019-04-14T07:38:16.914Z,101749.63
2019-04-14T07:40:57.244Z,101747.45
2019-04-14T07:43:40.732Z,101744.14
2019-04-14T07:46:17.613Z,101742.86
2019-04-14T07:48:45.747Z,101747.45
2019-04-14T07:51:30.727Z,101741.38
2019-04-14T07:54:04.767Z,101746.63
2019-04-14T07:56:48.102Z,101732.03
2019-04-14T07:59:16.107Z,101736.00
2019-04-14T08:01:59.233Z,101738.09
2019-04-14T08:04:30.565Z,101744.50
2019-04-14T08:06:56.952Z,101735.84
2019-04-14T08:09:23.410Z,101741.28
2019-04-14T08:11:49.521Z,101744.86
2019-04-14T08:14:15.968Z,101741.95
2019-04-14T08:16:42.363Z,101737.55
2019-04-14T08:19:08.561Z,101741.09
2019-04-14T08:21:34.921Z,101742.16
2019-04-14T08:24:01.430Z,101740.73
2019-04-14T08:26:27.781Z,101737.15
2019-04-14T08:28:54.081Z,101741.67
2019-04-14T08:31:20.421Z,101738.69
2019-04-14T08:33:46.521Z,101738.44
2019-04-14T08:36:12.815Z,101741.23
2019-04-14T08:38:39.161Z,101745.31
2019-04-14T08:41:05.400Z,101741.11
2019-04-14T08:43:42.621Z,101742.56
2019-04-14T08:46:19.852Z,101742.27
2019-04-14T08:48:50.864Z,101741.73
2019-04-14T08:51:19.007Z,101733.80
2019-04-14T08:54:02.119Z,101738.98
2019-04-14T08:56:46.667Z,101734.20
2019-04-14T08:59:29.837Z,101736.10
2019-04-14T09:01:57.824Z,101739.89
2019-04-14T09:04:35.021Z,101739.73
2019-04-14T09:07:14.989Z,101738.91
2019-04-14T09:09:43.176Z,101743.85
2019-04-14T09:12:15.737Z,101736.42
2019-04-14T09:14:39.791Z,101739.22
2019-04-14T09:17:05.912Z,101735.84
2019-04-14T09:19:32.125Z,101730.48
2019-04-14T09:21:58.407Z,101735.58
2019-04-14T09:24:24.645Z,101732.84
2019-04-14T09:26:50.965Z,101732.31
2019-04-14T09:29:17.327Z,101733.82
2019-04-14T09:31:43.849Z,101733.30
2019-04-14T09:34:10.216Z,101740.68
2019-04-14T09:36:36.398Z,101733.48
2019-04-14T09:39:04.943Z,101732.38
2019-04-14T09:41:32.157Z,101740.64
2019-04-14T09:43:58.345Z,101727.44
2019-04-14T09:46:24.675Z,101729.53
2019-04-14T09:48:50.781Z,101731.66
2019-04-14T09:51:17.070Z,101724.02
2019-04-14T09:53:43.289Z,101723.62
2019-04-14T09:56:09.377Z,101733.30
2019-04-14T09:58:35.530Z,101728.19
2019-04-14T10:01:01.845Z,101729.95
2019-04-14T10:03:28.070Z,101735.84
2019-04-14T10:05:54.205Z,101732.88
2019-04-14T10:08:20.432Z,101731.41
2019-04-14T10:10:46.778Z,101741.84
2019-04-14T10:13:13.069Z,101735.97
2019-04-14T10:15:39.196Z,101734.89
2019-04-14T10:18:05.409Z,101735.90
2019-04-14T10:20:31.866Z,101737.66
2019-04-14T10:22:58.499Z,101728.30
2019-04-14T10:25:24.632Z,101741.00
2019-04-14T10:27:50.758Z,101740.44
2019-04-14T10:30:17.069Z,101737.94
2019-04-14T10:32:43.297Z,101740.56
2019-04-14T10:35:09.514Z,101737.88
2019-04-14T10:37:35.836Z,101739.98
2019-04-14T10:40:06.071Z,101740.07
2019-04-14T10:42:31.728Z,101732.78
2019-04-14T10:44:58.249Z,101736.91
2019-04-14T10:47:24.439Z,101737.88
2019-04-14T10:49:50.737Z,101742.83
2019-04-14T10:52:16.909Z,101742.27
2019-04-14T10:54:43.177Z,101738.87
2019-04-14T10:57:09.393Z,101742.52
2019-04-14T10:59:35.618Z,101740.36
2019-04-14T11:02:02.044Z,101741.20
2019-04-14T11:04:28.371Z,101742.33
2019-04-14T11:06:56.389Z,101750.02
2019-04-14T11:09:22.645Z,101754.25
2019-04-14T11:11:48.801Z,101748.47
2019-04-14T11:14:15.140Z,101752.80
2019-04-14T11:16:41.497Z,101753.20
2019-04-14T11:19:07.699Z,101749.97
2019-04-14T11:21:42.433Z,101755.45
2019-04-14T11:24:02.430Z,101753.72
2019-04-14T11:26:28.765Z,101762.25
2019-04-14T11:28:55.001Z,101758.80
2019-04-14T11:31:39.606Z,101757.16
2019-04-14T11:34:06.534Z,101753.30
2019-04-14T11:36:46.734Z,101754.64
2019-04-14T11:39:14.862Z,101759.52
2019-04-14T11:41:41.336Z,101762.63
2019-04-14T11:44:07.975Z,101754.25
2019-04-14T11:46:34.303Z,101763.81
2019-04-14T11:49:00.542Z,101763.83
2019-04-14T11:51:26.862Z,101758.24
2019-04-14T11:53:53.117Z,101758.27
2019-04-14T11:56:19.396Z,101762.31
2019-04-14T11:58:45.660Z,101768.63
2019-04-14T12:01:22.729Z,101768.14
2019-04-14T12:04:05.896Z,101775.26
2019-04-14T12:06:39.701Z,101774.60
2019-04-14T12:09:10.492Z,101775.78
2019-04-14T12:11:37.200Z,101776.33
2019-04-14T12:14:04.299Z,101782.21
2019-04-14T12:16:32.355Z,101779.03
2019-04-14T12:18:59.580Z,101774.54
2019-04-14T12:21:27.308Z,101781.85
2019-04-14T12:23:54.442Z,101778.78
2019-04-14T12:26:21.161Z,101778.61
2019-04-14T12:28:47.855Z,101783.42
2019-04-14T12:31:15.243Z,101784.31
2019-04-14T12:33:41.728Z,101780.08
2019-04-14T12:36:10.566Z,101787.69
2019-04-14T12:38:36.801Z,101780.59
2019-04-14T12:41:06.149Z,101784.06
2019-04-14T12:43:37.018Z,101775.23
2019-04-14T12:46:11.189Z,101784.22
2019-04-14T12:48:56.180Z,101789.30
2019-04-14T12:51:24.339Z,101790.99
2019-04-14T12:53:50.620Z,101791.65
2019-04-14T12:56:18.875Z,101782.55
2019-04-14T12:58:51.068Z,101778.47
2019-04-14T13:01:19.183Z,101778.92
2019-04-14T13:03:45.501Z,101780.08
2019-04-14T13:06:12.831Z,101781.57
2019-04-14T13:08:39.007Z,101783.58
2019-04-14T13:11:06.038Z,101775.68
2019-04-14T13:13:32.449Z,101780.33
2019-04-14T13:15:58.762Z,101776.98
2019-04-14T13:18:25.056Z,101779.80
2019-04-14T13:20:51.286Z,101780.58
2019-04-14T13:23:17.506Z,101778.69
2019-04-14T13:25:43.634Z,101775.58
2019-04-14T13:28:10.053Z,101779.66
2019-04-14T13:30:38.472Z,101773.17
2019-04-14T13:33:04.713Z,101769.23
2019-04-14T13:35:31.023Z,101764.58
2019-04-14T13:37:57.269Z,101767.78
2019-04-14T13:40:23.683Z,101768.89
2019-04-14T13:42:50.068Z,101762.98
2019-04-14T13:45:16.353Z,101774.20
2019-04-14T13:47:42.536Z,101776.53
2019-04-14T13:50:09.147Z,101772.44
2019-04-14T13:52:45.974Z,101755.84
2019-04-14T13:55:04.370Z,101765.34
2019-04-14T13:57:30.780Z,101770.06
2019-04-14T13:59:57.207Z,101769.09
2019-04-14T14:02:23.580Z,101775.41
2019-04-14T14:04:50.075Z,101774.77
2019-04-14T14:07:16.663Z,101771.66
2019-04-14T14:09:43.076Z,101771.04
2019-04-14T14:12:26.514Z,101767.92
2019-04-14T14:15:10.268Z,101762.91
2019-04-14T14:17:53.440Z,101757.05
2019-04-14T14:20:24.189Z,101762.77
2019-04-14T14:23:10.742Z,101764.05
2019-04-14T14:25:41.795Z,101765.03
2019-04-14T14:28:08.168Z,101759.34
2019-04-14T14:30:34.805Z,101764.14
2019-04-14T14:33:01.139Z,101765.34
2019-04-14T14:35:27.377Z,101769.24
2019-04-14T14:37:53.503Z,101766.98
2019-04-14T14:40:20.068Z,101766.15
2019-04-14T14:42:46.472Z,101766.00
2019-04-14T14:45:14.934Z,101768.26
2019-04-14T14:47:43.093Z,101773.80
2019-04-14T14:50:23.196Z,101769.56
2019-04-14T14:52:49.609Z,101769.72
2019-04-14T14:55:16.020Z,101765.48
2019-04-14T14:57:42.590Z,101765.11
2019-04-14T15:00:23.412Z,101768.11
2019-04-14T15:02:49.638Z,101766.50
2019-04-14T15:05:15.812Z,101770.38
2019-04-14T15:07:42.144Z,101776.20
2019-04-14T15:10:08.477Z,101775.80
2019-04-14T15:12:35.792Z,101764.38
2019-04-14T15:15:03.633Z,101769.88
2019-04-14T15:17:30.015Z,101760.06
2019-04-14T15:19:57.288Z,101765.67
2019-04-14T15:22:23.504Z,101768.00
2019-04-14T15:24:49.740Z,101768.57
2019-04-14T15:27:15.975Z,101767.84
2019-04-14T15:29:42.211Z,101763.03
2019-04-14T15:32:08.559Z,101770.17
2019-04-14T15:34:34.891Z,101766.30
2019-04-14T15:37:01.266Z,101772.70
2019-04-14T15:39:27.811Z,101771.76
2019-04-14T15:41:54.261Z,101772.09
2019-04-14T15:44:20.886Z,101773.70
2019-04-14T15:46:47.407Z,101770.16
2019-04-14T15:49:14.838Z,101774.05
2019-04-14T15:51:41.094Z,101779.23
2019-04-14T15:54:07.415Z,101776.16
2019-04-14T15:56:52.226Z,101789.92
2019-04-14T15:59:35.724Z,101791.49
2019-04-14T16:02:10.032Z,101790.55
2019-04-14T16:04:41.117Z,101789.87
2019-04-14T16:07:12.983Z,101792.53
2019-04-14T16:09:43.824Z,101792.39
2019-04-14T16:12:14.861Z,101794.16
2019-04-14T16:14:58.323Z,101805.61
2019-04-14T16:17:43.358Z,101806.64
2019-04-14T16:20:17.556Z,101810.48
2019-04-14T16:22:43.875Z,101819.50
2019-04-14T16:25:10.310Z,101811.64
2019-04-14T16:27:38.549Z,101815.22
2019-04-14T16:30:16.467Z,101816.91
2019-04-14T16:32:44.690Z,101818.20
2019-04-14T16:35:12.940Z,101812.98
2019-04-14T16:37:39.241Z,101816.77
2019-04-14T16:40:06.093Z,101814.86
2019-04-14T16:42:32.312Z,101812.91
2019-04-14T16:44:58.532Z,101816.42
2019-04-14T16:47:24.919Z,101811.00
2019-04-14T16:49:51.482Z,101817.06
2019-04-14T16:52:19.751Z,101816.61
2019-04-14T16:55:04.619Z,101824.77
2019-04-14T16:57:50.876Z,101820.44
2019-04-14T17:00:22.388Z,101829.53
2019-04-14T17:02:50.164Z,101825.72
2019-04-14T17:05:16.531Z,101827.79
2019-04-14T17:07:42.769Z,101831.09
2019-04-14T17:10:09.703Z,101837.48
2019-04-14T17:12:36.045Z,101841.07
2019-04-14T17:15:17.797Z,101840.44
2019-04-14T17:18:02.432Z,101848.13
2019-04-14T17:20:30.641Z,101851.70
2019-04-14T17:23:15.481Z,101851.01
2019-04-14T17:25:43.560Z,101857.18
2019-04-14T17:28:17.691Z,101858.69
2019-04-14T17:30:45.980Z,101864.94
2019-04-14T17:33:17.229Z,101857.99
2019-04-14T17:35:51.400Z,101859.36
2019-04-14T17:38:19.584Z,101860.46
2019-04-14T17:40:56.661Z,101860.73
2019-04-14T17:43:34.948Z,101862.72
2019-04-14T17:46:03.154Z,101861.64
2019-04-14T17:48:46.329Z,101860.39
2019-04-14T17:51:23.605Z,101866.63
2019-04-14T17:54:06.993Z,101876.06
2019-04-14T17:56:41.056Z,101884.41
2019-04-14T17:59:18.391Z,101875.91
2019-04-14T18:01:46.650Z,101882.45
2019-04-14T18:04:19.573Z,101889.22
2019-04-14T18:06:47.859Z,101886.92
2019-04-14T18:09:16.217Z,101888.22
2019-04-14T18:11:53.494Z,101890.70
2019-04-14T18:14:21.610Z,101898.18
2019-04-14T18:17:04.790Z,101897.77
2019-04-14T18:19:32.844Z,101896.48
2019-04-14T18:21:59.195Z,101891.71
2019-04-14T18:24:25.428Z,101899.95
2019-04-14T18:26:51.790Z,101904.94
2019-04-14T18:29:26.383Z,101904.65
2019-04-14T18:31:54.489Z,101910.89
2019-04-14T18:34:31.789Z,101904.94
2019-04-14T18:37:08.776Z,101912.08
2019-04-14T18:39:49.871Z,101911.48
2019-04-14T18:42:34.625Z,101914.89
2019-04-14T18:45:12.030Z,101920.84
2019-04-14T18:47:52.442Z,101921.13
2019-04-14T18:50:23.701Z,101917.48
2019-04-14T18:52:54.645Z,101923.53
2019-04-14T18:55:40.382Z,101927.21
2019-04-14T18:58:17.650Z,101926.20
2019-04-14T19:00:55.050Z,101930.67
2019-04-14T19:03:21.279Z,101930.67
2019-04-14T19:05:47.597Z,101929.02
2019-04-14T19:08:14.146Z,101928.48
2019-04-14T19:10:42.590Z,101934.97
2019-04-14T19:13:13.567Z,101940.03
2019-04-14T19:15:47.674Z,101930.98
2019-04-14T19:18:18.788Z,101933.98
2019-04-14T19:20:46.820Z,101933.58
2019-04-14T19:23:13.039Z,101942.33
2019-04-14T19:25:39.244Z,101940.85
2019-04-14T19:28:05.463Z,101935.88
2019-04-14T19:30:31.735Z,101944.43
2019-04-14T19:32:57.974Z,101941.73
2019-04-14T19:35:26.801Z,101945.72
2019-04-14T19:37:52.375Z,101948.71
2019-04-14T19:40:18.709Z,101952.17
2019-04-14T19:42:45.014Z,101949.39
2019-04-14T19:45:11.330Z,101950.98
2019-04-14T19:47:37.662Z,101950.58
2019-04-14T19:50:04.571Z,101942.14
2019-04-14T19:52:30.960Z,101951.17
2019-04-14T19:54:57.236Z,101946.22
2019-04-14T19:57:23.347Z,101949.41
2019-04-14T19:59:49.601Z,101951.78
2019-04-14T20:02:16.026Z,101950.20
2019-04-14T20:04:42.370Z,101949.09
2019-04-14T20:07:08.481Z,101950.87
2019-04-14T20:09:34.755Z,101960.62
2019-04-14T20:12:00.975Z,101951.48
2019-04-14T20:14:27.370Z,101954.66
2019-04-14T20:17:05.947Z,101955.66
2019-04-14T20:19:40.275Z,101961.64
2019-04-14T20:22:11.294Z,101956.05
2019-04-14T20:24:42.396Z,101955.17
2019-04-14T20:27:27.332Z,101957.16
2019-04-14T20:29:55.564Z,101955.06
2019-04-14T20:32:23.675Z,101953.06
2019-04-14T20:34:50.137Z,101960.74
2019-04-14T20:37:16.343Z,101962.22
2019-04-14T20:39:42.536Z,101961.23
2019-04-14T20:42:09.035Z,101964.20
2019-04-14T20:44:35.256Z,101965.52
2019-04-14T20:47:01.692Z,101962.41
2019-04-14T20:49:29.044Z,101965.62
2019-04-14T20:51:55.365Z,101954.58
2019-04-14T20:54:21.598Z,101964.11
2019-04-14T20:56:47.814Z,101957.05
2019-04-14T20:59:13.905Z,101956.55
2019-04-14T21:01:41.938Z,101954.84
2019-04-14T21:04:16.085Z,101959.44
2019-04-14T21:06:56.343Z,101961.02
2019-04-14T21:09:30.480Z,101965.80
2019-04-14T21:11:58.695Z,101972.48
2019-04-14T21:14:26.721Z,101978.45
2019-04-14T21:17:10.100Z,101980.32
2019-04-14T21:19:39.199Z,101984.48
2019-04-14T21:22:10.122Z,101986.67
2019-04-14T21:24:43.939Z,101987.96
2019-04-14T21:27:11.958Z,101986.88
2019-04-14T21:29:42.865Z,101993.05
2019-04-14T21:32:13.852Z,101988.47
2019-04-14T21:34:44.816Z,101992.05
2019-04-14T21:37:19.965Z,101993.87
2019-04-14T21:39:48.098Z,101997.34
2019-04-14T21:42:14.827Z,101995.64
2019-04-14T21:44:41.150Z,101997.65
2019-04-14T21:47:07.350Z,102002.02
2019-04-14T21:49:33.682Z,102010.58
2019-04-14T21:52:01.921Z,101999.54
2019-04-14T21:54:28.212Z,101992.25
2019-04-14T21:57:12.794Z,102000.43
2019-04-14T21:59:57.679Z,102004.60
2019-04-14T22:02:42.790Z,102000.20
2019-04-14T22:05:27.600Z,102004.00
2019-04-14T22:08:07.944Z,102001.82
2019-04-14T22:10:36.104Z,102009.97
2019-04-14T22:13:02.496Z,102012.77
2019-04-14T22:15:28.807Z,102016.56
2019-04-14T22:17:55.126Z,102015.93
2019-04-14T22:20:21.437Z,102016.63
2019-04-14T22:22:47.750Z,102011.39
2019-04-14T22:25:14.076Z,102015.59
2019-04-14T22:27:40.304Z,102015.05
2019-04-14T22:30:07.337Z,102010.77
2019-04-14T22:32:33.446Z,102008.28
2019-04-14T22:34:59.671Z,102008.00
2019-04-14T22:37:25.783Z,102010.97
2019-04-14T22:39:51.876Z,102011.00
2019-04-14T22:42:18.202Z,102008.52
2019-04-14T22:44:44.496Z,102007.30
2019-04-14T22:47:10.611Z,102002.02
2019-04-14T22:49:36.796Z,102002.72
2019-04-14T22:52:03.432Z,102001.04
2019-04-14T22:54:29.529Z,102001.51
2019-04-14T22:56:55.771Z,102006.37
2019-04-14T22:59:21.982Z,102006.99
2019-04-14T23:01:49.987Z,102001.62
2019-04-14T23:04:18.090Z,101998.03
2019-04-14T23:07:02.947Z,102003.63
2019-04-14T23:09:31.073Z,102002.05
2019-04-14T23:12:08.310Z,101999.81
2019-04-14T23:14:48.458Z,102006.49
2019-04-14T23:17:25.746Z,101995.84
2019-04-14T23:19:56.876Z,101998.81
2019-04-14T23:22:34.161Z,101994.33
2019-04-14T23:25:00.475Z,101991.55
2019-04-14T23:27:26.593Z,101988.22
2019-04-14T23:29:52.840Z,101981.34
2019-04-14T23:32:19.031Z,101975.95
2019-04-14T23:34:45.141Z,101979.57
2019-04-14T23:37:11.448Z,101974.95
2019-04-14T23:39:37.589Z,101978.35
2019-04-14T23:42:04.001Z,101976.75
2019-04-14T23:44:30.080Z,101978.13
2019-04-14T23:46:56.375Z,101977.55
2019-04-14T23:49:22.682Z,101970.08
2019-04-14T23:51:48.972Z,101971.48
2019-04-14T23:54:15.076Z,101971.06
2019-04-14T23:56:41.291Z,101966.39
2019-04-14T23:59:07.526Z,101967.09
